Time;durP1;ratioP1;P1;durP2;ratioP2;P2;SDS_P1;SDS_P2;PMS_P1;PMS_P2;Temp;Humidity;BMP_temperature;BMP_pressure;BME280_temperature;BME280_humidity;BME280_pressure;Samples;Min_cycle;Max_cycle;Signal;HPM_P1;HPM_P2
2023/01/03 00:02:22;;;;;;;9.83;4.83;;;;;;;8.50;87.04;100773.75;4933186;28;20096;-86
2023/01/03 00:04:47;;;;;;;13.23;4.77;;;;;;;8.60;86.54;100783.31;4930767;28;21531;-86
2023/01/03 00:07:12;;;;;;;13.80;6.17;;;;;;;8.50;86.62;100770.22;4932306;28;20266;-88
2023/01/03 00:09:38;;;;;;;12.15;5.07;;;;;;;8.45;86.42;100770.06;4932374;28;20283;-87
2023/01/03 00:14:47;;;;;;;10.45;4.32;;;;;;;8.53;85.54;100765.16;4932367;28;20388;-87
2023/01/03 00:17:12;;;;;;;17.03;4.47;;;;;;;8.57;85.16;100767.44;4931768;28;20687;-86
2023/01/03 00:19:41;;;;;;;10.52;3.88;;;;;;;8.54;84.71;100774.16;4928863;28;20280;-87
2023/01/03 00:22:08;;;;;;;7.93;3.80;;;;;;;8.33;84.59;100778.13;4928587;28;20081;-87
2023/01/03 00:24:34;;;;;;;9.95;4.53;;;;;;;8.20;85.02;100774.47;4928867;28;20046;-86
2023/01/03 00:26:59;;;;;;;7.72;2.72;;;;;;;8.14;85.04;100775.38;4928059;28;20158;-87
2023/01/03 00:29:25;;;;;;;16.45;5.40;;;;;;;8.21;84.62;100776.16;4928266;28;20441;-87
2023/01/03 00:31:50;;;;;;;7.38;2.60;;;;;;;8.24;84.35;100775.69;4928820;28;20558;-87
2023/01/03 00:34:15;;;;;;;7.90;3.30;;;;;;;8.25;84.09;100777.38;4928012;28;20555;-86
2023/01/03 00:36:41;;;;;;;11.82;4.60;;;;;;;8.26;83.89;100776.31;4929375;28;20047;-86
2023/01/03 00:39:06;;;;;;;7.33;3.17;;;;;;;8.36;83.75;100769.53;4910396;28;21131;-87
2023/01/03 00:41:32;;;;;;;6.75;2.55;;;;;;;8.38;83.63;100786.44;4904905;28;20714;-86
2023/01/03 00:43:57;;;;;;;7.95;3.00;;;;;;;8.47;83.09;100790.53;4927500;28;20042;-86
2023/01/03 00:46:23;;;;;;;7.57;3.03;;;;;;;8.47;82.64;100785.09;4927821;28;21284;-85
2023/01/03 00:48:49;;;;;;;8.35;3.45;;;;;;;8.47;82.65;100787.81;4928842;28;20585;-87
2023/01/03 00:51:20;;;;;;;7.55;2.60;;;;;;;8.31;82.43;100785.66;4928836;28;20041;-87
2023/01/03 00:53:47;;;;;;;8.82;3.30;;;;;;;8.44;82.55;100799.09;4929194;28;20776;-86
2023/01/03 00:56:16;;;;;;;8.10;2.92;;;;;;;8.43;81.94;100794.75;4910634;28;20661;-87
2023/01/03 00:58:42;;;;;;;8.93;3.28;;;;;;;8.38;82.06;100791.88;4910435;28;20039;-87
2023/01/03 01:01:14;;;;;;;10.40;3.00;;;;;;;8.40;82.53;100789.78;4929313;28;20117;-86
2023/01/03 01:03:42;;;;;;;6.35;3.25;;;;;;;8.36;82.23;100804.88;4936227;28;20038;-87
2023/01/03 01:06:22;;;;;;;7.15;3.58;;;;;;;8.22;81.72;100799.53;4945997;28;20042;-86
2023/01/03 01:08:49;;;;;;;6.85;3.15;;;;;;;8.34;82.34;100802.34;4926604;28;20038;-85
2023/01/03 01:11:15;;;;;;;8.18;3.75;;;;;;;8.33;82.35;100805.28;4928378;28;20596;-85
2023/01/03 01:13:42;;;;;;;5.40;2.78;;;;;;;8.36;82.40;100810.28;4927837;28;20558;-85
2023/01/03 01:16:16;;;;;;;9.25;3.20;;;;;;;8.20;82.07;100809.78;4927704;28;20066;-85
2023/01/03 01:18:43;;;;;;;10.27;4.15;;;;;;;8.13;83.22;100812.59;4927642;28;20817;-85
2023/01/03 01:21:13;;;;;;;7.00;3.10;;;;;;;8.07;82.92;100808.06;4927580;28;20041;-85
2023/01/03 01:23:40;;;;;;;8.68;4.28;;;;;;;8.10;83.26;100807.59;4926600;28;20030;-85
2023/01/03 01:26:06;;;;;;;12.35;5.30;;;;;;;8.00;83.34;100807.25;4927605;28;21367;-85
2023/01/03 01:28:32;;;;;;;8.32;3.60;;;;;;;8.09;83.37;100810.53;4927689;28;20629;-85
2023/01/03 01:31:02;;;;;;;8.15;3.75;;;;;;;8.16;82.93;100816.72;4926557;28;20046;-85
2023/01/03 01:33:27;;;;;;;12.60;3.80;;;;;;;8.08;83.18;100811.56;4925994;28;20919;-85
2023/01/03 01:35:53;;;;;;;9.10;3.47;;;;;;;7.92;82.69;100821.94;4903403;28;20174;-85
2023/01/03 01:38:18;;;;;;;11.02;4.00;;;;;;;8.03;82.55;100823.13;4926946;28;20132;-85
2023/01/03 01:40:44;;;;;;;8.75;4.03;;;;;;;8.09;83.27;100821.41;4925807;28;20061;-84
2023/01/03 01:46:18;;;;;;;6.55;2.88;;;;;;;7.96;82.16;100838.63;4927050;28;20384;-85
2023/01/03 01:48:44;;;;;;;23.80;6.05;;;;;;;7.91;82.26;100839.31;4909536;28;20756;-85
2023/01/03 01:51:10;;;;;;;9.13;3.78;;;;;;;7.88;82.22;100850.59;4926859;28;20153;-84
2023/01/03 01:53:39;;;;;;;9.48;3.50;;;;;;;7.89;82.55;100849.56;4926618;28;20034;-85
2023/01/03 01:56:17;;;;;;;6.85;3.38;;;;;;;7.69;82.67;100855.94;4926386;28;20077;-86
2023/01/03 01:58:44;;;;;;;9.13;3.15;;;;;;;7.84;82.48;100858.34;4926472;28;20045;-85
2023/01/03 02:01:12;;;;;;;6.97;3.45;;;;;;;7.80;82.32;100867.97;4926623;28;20632;-86
2023/01/03 02:03:40;;;;;;;11.10;3.17;;;;;;;7.90;81.69;100867.50;4926300;28;20034;-86
2023/01/03 02:06:08;;;;;;;5.57;3.55;;;;;;;7.70;83.08;100863.03;4925535;28;20176;-85
2023/01/03 02:08:34;;;;;;;5.78;2.92;;;;;;;7.56;82.94;100868.56;4926495;28;20796;-85
2023/01/03 02:11:37;;;;;;;10.43;4.22;;;;;;;7.62;82.90;100866.84;4926238;28;20038;-85
2023/01/03 02:14:33;;;;;;;7.65;2.88;;;;;;;7.71;82.35;100870.13;4927322;28;20108;-84
2023/01/03 02:17:22;;;;;;;10.73;4.25;;;;;;;7.58;82.72;100874.59;4925732;28;20049;-85
2023/01/03 02:20:17;;;;;;;10.43;4.78;;;;;;;7.47;82.97;100877.97;4934086;28;20034;-85
2023/01/03 02:22:57;;;;;;;7.30;3.42;;;;;;;7.61;83.32;100876.03;4939329;28;20573;-87
2023/01/03 02:25:41;;;;;;;7.93;3.10;;;;;;;7.61;82.70;100886.88;4936992;28;20575;-87
2023/01/03 02:28:36;;;;;;;7.30;2.88;;;;;;;7.72;82.24;100893.50;4926611;28;20200;-86
2023/01/03 02:31:07;;;;;;;;;;;;;;;7.63;82.01;100892.13;4927088;28;20049;-86
2023/01/03 02:33:47;;;;;;;10.98;3.95;;;;;;;7.61;82.26;100891.50;4925911;28;20285;-87
2023/01/03 02:36:38;;;;;;;10.43;4.03;;;;;;;7.56;82.67;100884.84;4925796;28;20556;-87
2023/01/03 02:39:24;;;;;;;5.47;2.88;;;;;;;7.58;83.04;100885.44;4938342;28;20702;-86
2023/01/03 02:45:02;;;;;;;9.20;3.28;;;;;;;7.68;83.36;100898.56;4937430;28;20050;-86
2023/01/03 02:47:34;;;;;;;8.57;3.60;;;;;;;7.67;82.82;100883.28;4940558;28;20038;-87
2023/01/03 02:50:03;;;;;;;10.65;4.30;;;;;;;7.69;81.69;100893.94;4932690;28;20510;-87
2023/01/03 02:52:30;;;;;;;11.10;4.60;;;;;;;7.77;81.44;100899.09;4939119;28;20037;-88
2023/01/03 02:55:03;;;;;;;7.13;4.03;;;;;;;7.80;81.44;100889.69;4944505;28;20157;-88
2023/01/03 02:57:39;;;;;;;12.70;3.83;;;;;;;7.81;81.30;100891.38;4938004;28;20045;-87
2023/01/03 03:00:10;;;;;;;9.13;4.15;;;;;;;7.87;80.66;100892.38;4927503;28;20085;-87
2023/01/03 03:02:40;;;;;;;11.35;4.75;;;;;;;7.73;81.25;100894.34;4923644;28;20030;-87
2023/01/03 03:05:10;;;;;;;9.73;4.57;;;;;;;7.70;81.44;100895.63;4937014;28;20113;-85
2023/01/03 03:07:39;;;;;;;9.63;4.47;;;;;;;7.81;81.30;100892.19;4927682;28;20257;-87
2023/01/03 03:13:13;;;;;;;7.35;3.72;;;;;;;7.92;81.73;100897.97;4926593;28;20668;-86
2023/01/03 03:16:04;;;;;;;9.27;3.95;;;;;;;8.08;81.17;100890.34;4934703;28;20038;-87
2023/01/03 03:18:36;;;;;;;8.82;3.92;;;;;;;8.17;80.79;100891.75;4926759;28;20595;-88
2023/01/03 03:26:40;;;;;;;9.85;4.05;;;;;;;8.11;79.27;100892.63;4938899;28;21401;-87
2023/01/03 03:29:12;;;;;;;15.27;5.30;;;;;;;7.99;79.47;100890.63;4925876;28;20119;-87
2023/01/03 03:31:44;;;;;;;9.80;4.70;;;;;;;7.90;79.50;100897.38;4925773;28;20354;-87
2023/01/03 03:34:18;;;;;;;9.93;4.57;;;;;;;7.82;80.35;100893.88;4926568;28;21000;-86
2023/01/03 03:36:53;;;;;;;10.23;4.18;;;;;;;7.66;80.76;100905.25;4925713;28;20365;-87
2023/01/03 03:45:11;;;;;;;9.77;4.80;;;;;;;8.00;80.55;100905.88;4926570;28;20131;-85
2023/01/03 03:47:47;;;;;;;7.22;4.22;;;;;;;8.16;80.47;100906.38;4925873;28;20657;-87
2023/01/03 03:50:49;;;;;;;7.63;3.92;;;;;;;8.18;80.11;100912.41;4926706;28;20563;-86
2023/01/03 03:53:18;;;;;;;7.82;3.92;;;;;;;8.12;80.61;100907.88;4919595;28;20053;-87
2023/01/03 03:55:52;;;;;;;13.30;5.45;;;;;;;8.14;80.63;100909.31;4911643;28;20764;-87
2023/01/03 03:58:49;;;;;;;11.27;4.18;;;;;;;8.18;79.86;100905.09;4928794;28;20132;-87
2023/01/03 04:01:18;;;;;;;10.27;4.72;;;;;;;8.06;80.39;100910.41;4912756;28;20438;-87
2023/01/03 04:03:46;;;;;;;11.77;6.10;;;;;;;8.02;79.73;100909.19;4929444;28;20652;-86
2023/01/03 04:06:21;;;;;;;12.48;5.30;;;;;;;7.87;79.99;100912.19;4929716;28;20623;-87
2023/01/03 04:08:46;;;;;;;20.23;5.53;;;;;;;7.72;80.52;100912.50;4929638;28;20106;-87
2023/01/03 04:11:11;;;;;;;11.00;5.82;;;;;;;7.65;80.78;100914.41;4928390;28;21067;-87
2023/01/03 04:13:37;;;;;;;11.90;4.63;;;;;;;7.71;80.18;100908.13;4928567;28;20049;-87
2023/01/03 04:16:03;;;;;;;11.27;5.55;;;;;;;7.78;80.78;100916.25;4929678;28;20030;-87
2023/01/03 04:18:28;;;;;;;12.65;4.60;;;;;;;7.82;79.89;100912.88;4929016;28;20030;-87
2023/01/03 04:20:53;;;;;;;16.35;5.45;;;;;;;7.87;80.22;100916.81;4928586;28;20597;-87
2023/01/03 04:23:19;;;;;;;12.98;5.50;;;;;;;7.86;80.70;100926.00;4929247;28;20685;-88
2023/01/03 04:25:44;;;;;;;11.60;5.88;;;;;;;7.89;80.86;100920.16;4928722;28;20431;-86
2023/01/03 04:28:09;;;;;;;10.55;5.53;;;;;;;7.99;80.27;100917.78;4928882;28;20698;-87
2023/01/03 04:30:35;;;;;;;11.45;5.78;;;;;;;7.96;80.12;100915.50;4929036;28;20051;-87
2023/01/03 04:33:04;;;;;;;10.57;5.47;;;;;;;8.05;80.75;100913.38;4911227;28;20126;-86
2023/01/03 04:35:33;;;;;;;10.95;5.32;;;;;;;8.05;80.18;100916.09;4927815;28;20338;-87
2023/01/03 04:37:59;;;;;;;12.10;6.82;;;;;;;7.93;80.63;100924.09;4928236;28;20034;-87
2023/01/03 04:40:24;;;;;;;11.82;5.93;;;;;;;8.05;80.32;100916.09;4928631;28;20058;-87
2023/01/03 04:45:34;;;;;;;12.57;6.35;;;;;;;7.92;80.17;100919.69;4928984;28;20195;-88
2023/01/03 04:48:00;;;;;;;11.65;6.75;;;;;;;7.75;81.08;100917.50;4929421;28;20477;-86
2023/01/03 04:50:25;;;;;;;12.02;5.68;;;;;;;7.79;80.85;100926.06;4928788;28;20346;-87
2023/01/03 04:52:50;;;;;;;14.65;6.82;;;;;;;7.67;81.46;100917.75;4928889;28;20582;-87
2023/01/03 04:55:15;;;;;;;9.30;5.07;;;;;;;7.78;81.29;100919.78;4928621;28;20452;-87
2023/01/03 04:57:41;;;;;;;13.80;6.35;;;;;;;7.82;80.96;100926.44;4928595;28;20588;-87
2023/01/03 05:00:07;;;;;;;19.63;7.15;;;;;;;7.91;81.59;100928.91;4927950;28;20038;-87
2023/01/03 05:02:32;;;;;;;10.27;5.72;;;;;;;7.87;81.39;100933.13;4927303;28;20701;-87
2023/01/03 05:04:58;;;;;;;14.27;7.43;;;;;;;7.97;80.97;100929.91;4927998;28;20042;-87
2023/01/03 05:07:23;;;;;;;11.27;5.63;;;;;;;7.87;80.42;100927.69;4926756;28;20479;-87
2023/01/03 05:09:48;;;;;;;14.67;5.87;;;;;;;7.82;80.70;100926.44;4940675;28;21293;-87
2023/01/03 05:12:13;;;;;;;12.63;5.30;;;;;;;7.92;81.12;100919.69;4927634;28;20852;-87
2023/01/03 05:14:41;;;;;;;13.63;5.60;;;;;;;7.99;80.56;100922.38;4927092;28;20263;-87
2023/01/03 05:17:07;;;;;;;8.90;4.03;;;;;;;8.05;80.10;100921.50;4927577;28;20275;-87
2023/01/03 05:19:33;;;;;;;12.95;5.75;;;;;;;8.04;80.21;100927.97;4927743;28;20479;-86
2023/01/03 05:27:26;;;;;;;15.65;5.18;;;;;;;7.74;79.33;100934.84;4926969;28;20053;-87
2023/01/03 05:29:52;;;;;;;14.07;4.85;;;;;;;7.71;80.21;100929.84;4926157;28;20547;-87
2023/01/03 05:32:17;;;;;;;17.60;6.50;;;;;;;7.73;79.78;100927.75;4926432;28;20038;-87
2023/01/03 05:34:43;;;;;;;16.08;4.47;;;;;;;7.50;80.07;100923.69;4926125;28;20458;-86
2023/01/03 05:37:08;;;;;;;12.77;4.15;;;;;;;7.56;81.02;100930.97;4926147;28;20729;-87
2023/01/03 05:39:33;;;;;;;13.52;5.38;;;;;;;7.52;80.87;100932.44;4927385;28;20289;-87
2023/01/03 05:41:59;;;;;;;10.33;4.63;;;;;;;7.56;80.90;100927.41;4926390;28;20694;-88
2023/01/03 05:44:25;;;;;;;10.82;4.43;;;;;;;7.47;81.20;100935.81;4926564;28;20952;-88
2023/01/03 05:46:51;;;;;;;9.40;4.35;;;;;;;7.58;80.48;100934.31;4927263;28;20073;-87
2023/01/03 05:49:16;;;;;;;8.05;3.53;;;;;;;7.52;80.28;100931.63;4927581;28;20062;-87
2023/01/03 05:51:42;;;;;;;10.10;4.07;;;;;;;7.39;80.46;100927.06;4927032;28;20688;-87
2023/01/03 05:54:11;;;;;;;14.15;4.07;;;;;;;7.47;81.18;100934.97;4927938;28;20077;-86
2023/01/03 05:56:36;;;;;;;8.18;4.00;;;;;;;7.54;80.51;100929.53;4927293;28;20447;-86
2023/01/03 05:59:02;;;;;;;6.28;3.35;;;;;;;7.54;80.55;100935.78;4910527;28;20314;-87
2023/01/03 06:01:27;;;;;;;10.60;4.67;;;;;;;7.58;80.19;100931.59;4926880;28;20721;-87
2023/01/03 06:03:53;;;;;;;11.10;4.20;;;;;;;7.63;80.20;100930.13;4927592;28;20284;-87
2023/01/03 06:06:18;;;;;;;12.52;4.35;;;;;;;7.70;80.10;100933.63;4926900;28;20093;-86
2023/01/03 06:08:43;;;;;;;7.80;3.88;;;;;;;7.72;79.91;100936.94;4927050;28;20620;-87
2023/01/03 06:11:12;;;;;;;11.02;4.82;;;;;;;7.75;79.98;100935.69;4927293;28;20902;-88
2023/01/03 06:13:37;;;;;;;11.38;4.18;;;;;;;7.86;80.10;100936.88;4927097;28;20042;-87
2023/01/03 06:18:48;;;;;;;9.07;4.70;;;;;;;7.78;80.22;100932.53;4926285;28;20072;-87
2023/01/03 06:21:14;;;;;;;21.40;4.93;;;;;;;7.78;80.23;100935.25;4927104;28;20042;-87
2023/01/03 06:23:39;;;;;;;7.95;4.07;;;;;;;7.72;80.49;100931.53;4926160;28;20065;-86
2023/01/03 06:26:04;;;;;;;14.70;4.23;;;;;;;7.78;80.27;100935.25;4925065;28;20042;-87
2023/01/03 06:28:30;;;;;;;10.23;5.00;;;;;;;7.70;80.89;100933.63;4926351;28;20374;-87
2023/01/03 06:30:55;;;;;;;12.98;6.32;;;;;;;7.75;80.47;100931.06;4907892;28;20456;-87
2023/01/03 06:33:21;;;;;;;6.80;3.35;;;;;;;7.81;80.59;100937.53;4926157;28;20401;-87
2023/01/03 06:35:46;;;;;;;9.40;3.30;;;;;;;7.88;79.98;100937.47;4924797;28;20089;-87
2023/01/03 06:38:11;;;;;;;7.43;3.80;;;;;;;7.69;79.89;100931.94;4926162;28;20065;-87
2023/01/03 06:40:36;;;;;;;12.85;3.88;;;;;;;7.75;80.27;100928.34;4926057;28;21435;-87
2023/01/03 06:43:02;;;;;;;6.67;3.40;;;;;;;7.79;80.41;100929.59;4925906;28;20056;-87
2023/01/03 06:53:41;;;;;;;8.80;4.13;;;;;;;7.48;80.71;100937.47;4925784;28;20186;-87
2023/01/03 06:56:07;;;;;;;8.57;4.43;;;;;;;7.44;81.55;100936.25;4926026;28;20042;-87
2023/01/03 06:58:33;;;;;;;9.30;3.95;;;;;;;7.61;81.00;100937.63;4925719;28;20387;-87
2023/01/03 07:01:02;;;;;;;12.07;3.13;;;;;;;7.61;80.90;100934.94;4926031;28;20073;-88
2023/01/03 07:03:28;;;;;;;7.35;2.90;;;;;;;7.70;81.23;100939.03;4926454;28;20165;-88
2023/01/03 07:05:54;;;;;;;12.93;3.38;;;;;;;7.83;80.47;100940.88;4926142;28;20173;-87
2023/01/03 07:08:19;;;;;;;10.38;4.13;;;;;;;7.82;79.95;100945.47;4940303;28;20043;-87
2023/01/03 07:10:45;;;;;;;9.50;4.32;;;;;;;7.88;80.12;100945.63;4926917;28;20523;-87
2023/01/03 07:15:54;;;;;;;12.23;3.88;;;;;;;7.69;80.07;100942.78;4927138;28;20181;-87
2023/01/03 07:18:19;;;;;;;8.43;2.70;;;;;;;7.80;80.44;100944.00;4926927;28;20161;-88
2023/01/03 07:20:45;;;;;;;7.43;3.42;;;;;;;7.85;79.85;100940.66;4926612;28;20501;-88
2023/01/03 07:23:11;;;;;;;10.25;4.18;;;;;;;7.85;80.14;100951.50;4926377;28;20042;-87
2023/01/03 07:25:40;;;;;;;17.30;4.45;;;;;;;7.91;79.94;100942.50;4926143;28;20470;-87
2023/01/03 07:28:12;;;;;;;10.95;3.65;;;;;;;7.85;79.63;100943.38;4908062;28;20699;-86
2023/01/03 07:30:40;;;;;;;10.88;3.75;;;;;;;7.72;80.03;100942.38;4928916;28;20049;-87
2023/01/03 07:33:07;;;;;;;8.63;3.75;;;;;;;7.90;80.18;100954.38;4929922;28;20509;-88
2023/01/03 07:35:34;;;;;;;7.00;3.67;;;;;;;7.94;79.35;100952.91;4930350;28;20034;-87
2023/01/03 07:37:59;;;;;;;22.45;3.53;;;;;;;7.80;80.01;100950.28;4929737;28;21807;-87
2023/01/03 07:40:24;;;;;;;9.05;3.85;;;;;;;7.82;80.18;100950.88;4929923;28;20880;-87
2023/01/03 07:45:33;;;;;;;6.93;3.38;;;;;;;7.80;80.40;100958.41;4930847;28;20139;-87
2023/01/03 07:47:58;;;;;;;6.93;3.38;;;;;;;7.83;80.43;100957.16;4930705;28;20173;-87
2023/01/03 07:50:24;;;;;;;5.88;2.05;;;;;;;7.80;80.70;100955.69;4929422;28;20608;-87
2023/01/03 07:52:49;;;;;;;8.88;2.47;;;;;;;7.87;80.44;100965.69;4905042;28;20128;-88
2023/01/03 07:55:15;;;;;;;6.65;2.95;;;;;;;7.79;80.67;100956.75;4930012;28;20140;-87
2023/01/03 07:57:40;;;;;;;8.18;2.88;;;;;;;7.76;80.98;100954.47;4928832;28;20284;-87
2023/01/03 08:00:06;;;;;;;9.73;3.55;;;;;;;7.59;81.80;100946.81;4929942;28;20161;-88
2023/01/03 08:02:31;;;;;;;10.88;3.97;;;;;;;7.65;81.88;100949.69;4928865;28;20041;-87
2023/01/03 08:04:56;;;;;;;6.50;2.85;;;;;;;7.65;81.82;100952.41;4929526;28;20762;-88
2023/01/03 08:07:21;;;;;;;6.10;2.70;;;;;;;7.60;82.55;100947.66;4930028;28;20042;-88
2023/01/03 08:15:35;;;;;;;10.55;3.22;;;;;;;7.46;82.41;100946.88;4886270;29;20057;-87
2023/01/03 08:18:01;;;;;;;7.10;2.97;;;;;;;7.29;83.03;100936.50;4907311;28;20307;-87
2023/01/03 08:20:26;;;;;;;8.80;3.60;;;;;;;7.46;82.86;100944.16;4928838;28;20612;-86
2023/01/03 08:22:51;;;;;;;10.53;3.50;;;;;;;7.42;82.49;100937.50;4928930;28;20049;-86
2023/01/03 08:25:17;;;;;;;5.97;2.53;;;;;;;7.45;82.56;100942.47;4930285;28;20280;-87
2023/01/03 08:27:42;;;;;;;6.97;2.53;;;;;;;7.39;82.87;100937.91;4929118;28;20617;-84
2023/01/03 08:30:08;;;;;;;9.60;2.83;;;;;;;7.48;82.98;100942.06;4929717;28;20608;-87
2023/01/03 08:32:33;;;;;;;7.32;3.03;;;;;;;7.28;82.87;100951.09;4927870;28;20850;-87
2023/01/03 08:34:59;;;;;;;9.88;2.60;;;;;;;7.33;83.03;100945.88;4930814;28;21319;-88
2023/01/03 08:37:26;;;;;;;7.47;2.55;;;;;;;7.18;82.97;100942.59;4928471;28;20065;-87
2023/01/03 08:40:01;;;;;;;6.80;3.03;;;;;;;7.14;83.39;100947.59;4928763;28;20116;-84
2023/01/03 08:42:26;;;;;;;5.50;2.47;;;;;;;7.36;83.25;100944.63;4927874;28;20861;-86
2023/01/03 08:44:58;;;;;;;9.43;3.05;;;;;;;7.41;83.11;100947.50;4927692;28;20941;-84
2023/01/03 08:47:24;;;;;;;7.35;2.75;;;;;;;7.34;83.37;100947.53;4927744;28;20046;-84
2023/01/03 08:49:49;;;;;;;6.50;2.80;;;;;;;7.35;83.07;100949.22;4927680;28;20038;-86
2023/01/03 08:52:14;;;;;;;8.40;3.08;;;;;;;7.44;82.76;100946.25;4928448;28;20045;-84
2023/01/03 08:54:40;;;;;;;7.67;2.83;;;;;;;7.42;82.78;100951.91;4927175;28;21130;-86
2023/01/03 08:57:05;;;;;;;5.10;2.00;;;;;;;7.43;82.61;100956.28;4926180;28;21043;-84
2023/01/03 08:59:31;;;;;;;6.07;2.85;;;;;;;7.40;82.96;100950.44;4926285;28;20272;-87
2023/01/03 09:01:57;;;;;;;7.07;2.17;;;;;;;7.35;82.90;100954.63;4927640;28;20098;-84
2023/01/03 09:04:23;;;;;;;6.00;3.33;;;;;;;7.42;82.91;100948.34;4927942;28;21190;-87
2023/01/03 09:06:48;;;;;;;6.20;2.58;;;;;;;7.46;82.88;100957.72;4905316;28;20976;-84
2023/01/03 09:09:13;;;;;;;5.32;2.13;;;;;;;7.45;83.10;100954.19;4928191;28;20645;-86
2023/01/03 09:11:38;;;;;;;4.47;1.90;;;;;;;7.55;82.40;100963.75;4926197;28;20561;-85
2023/01/03 09:14:04;;;;;;;5.97;2.77;;;;;;;7.54;81.88;100973.78;4927876;28;20807;-85
2023/01/03 09:16:29;;;;;;;5.80;2.78;;;;;;;7.71;82.28;100962.41;4925799;28;20413;-84
2023/01/03 09:18:54;;;;;;;9.10;2.10;;;;;;;7.61;81.67;100976.44;4927972;28;20687;-89
2023/01/03 09:21:20;;;;;;;8.50;2.97;;;;;;;7.74;81.73;100978.28;4928358;28;20138;-84
2023/01/03 09:23:45;;;;;;;6.70;2.58;;;;;;;7.82;81.76;100961.75;4908447;28;20882;-85
2023/01/03 09:26:10;;;;;;;3.58;1.63;;;;;;;7.92;81.61;100963.16;4927463;28;20563;-87
2023/01/03 09:28:35;;;;;;;4.40;1.77;;;;;;;7.87;81.60;100949.41;4927356;28;20042;-88
2023/01/03 09:31:01;;;;;;;7.82;2.90;;;;;;;7.82;81.49;100950.88;4927991;28;20548;-85
2023/01/03 09:33:27;;;;;;;7.35;1.88;;;;;;;7.90;81.36;100957.09;4927499;28;20042;-87
2023/01/03 09:35:53;;;;;;;10.52;3.00;;;;;;;7.93;81.58;100948.53;4908243;28;20673;-88
2023/01/03 09:38:19;;;;;;;7.18;2.25;;;;;;;7.92;80.96;100961.28;4926640;28;20466;-86
2023/01/03 09:40:45;;;;;;;7.95;2.35;;;;;;;8.02;80.88;100962.69;4927938;28;20862;-88
2023/01/03 09:43:17;;;;;;;6.57;2.42;;;;;;;7.92;81.20;100966.72;4927677;28;20113;-87
2023/01/03 09:45:50;;;;;;;5.72;2.50;;;;;;;7.89;81.23;100969.84;4926164;28;20096;-85
2023/01/03 09:48:17;;;;;;;6.38;1.95;;;;;;;7.94;81.57;100966.47;4926607;28;20054;-86
2023/01/03 09:50:44;;;;;;;7.53;2.00;;;;;;;7.97;81.16;100966.06;4909479;28;20343;-85
2023/01/03 10:05:15;;;;;;;5.40;1.40;;;;;;;8.09;80.34;100958.06;4926135;28;20808;-85
2023/01/03 10:07:55;;;;;;;5.40;2.38;;;;;;;8.11;80.70;100961.38;4924371;28;20044;-87
2023/01/03 10:10:38;;;;;;;2.78;1.30;;;;;;;8.06;80.90;100962.03;4926910;28;20031;-87
2023/01/03 10:13:43;;;;;;;5.65;2.13;;;;;;;8.11;81.15;100966.81;4927353;28;20071;-88
2023/01/03 10:16:42;;;;;;;4.05;1.33;;;;;;;8.17;80.82;100968.66;4926380;28;20670;-88
2023/01/03 10:19:26;;;;;;;8.10;2.05;;;;;;;8.19;80.28;100973.88;4919824;28;20050;-89
2023/01/03 10:22:10;;;;;;;7.32;2.00;;;;;;;8.24;80.26;100979.47;4926396;28;20128;-87
2023/01/03 10:24:43;;;;;;;3.70;1.67;;;;;;;8.15;80.38;100972.63;4926924;28;20031;-87
2023/01/03 10:27:15;;;;;;;8.20;2.65;;;;;;;8.06;80.60;100978.31;4928321;28;20030;-84
2023/01/03 10:29:42;;;;;;;4.65;1.70;;;;;;;8.02;81.79;100968.09;4927241;28;20042;-84
2023/01/03 10:32:17;;;;;;;4.63;1.50;;;;;;;8.00;83.12;100965.63;4909296;28;20042;-87
2023/01/03 10:34:42;;;;;;;19.02;2.72;;;;;;;8.02;83.74;100951.81;4926917;28;20665;-86
2023/01/03 10:37:18;;;;;;;4.57;2.07;;;;;;;8.10;83.38;100953.44;4923558;28;20172;-89
2023/01/03 10:39:43;;;;;;;3.53;1.48;;;;;;;8.14;83.70;100960.09;4924570;28;20280;-88
2023/01/03 10:42:17;;;;;;;25.50;1.73;;;;;;;8.10;83.78;100956.97;4925531;28;20201;-87
2023/01/03 10:44:56;;;;;;;3.63;1.20;;;;;;;8.19;83.26;100952.13;4925531;28;20754;-87
2023/01/03 10:47:24;;;;;;;3.72;1.40;;;;;;;8.22;82.97;100954.41;4926439;28;20121;-87
2023/01/03 10:49:57;;;;;;;8.57;2.70;;;;;;;8.29;83.13;100960.63;4925949;28;20550;-90
2023/01/03 10:52:23;;;;;;;2.60;1.23;;;;;;;8.34;83.54;100953.72;4926301;28;21372;-85
2023/01/03 10:54:54;;;;;;;3.22;1.30;;;;;;;8.35;83.77;100947.22;4926592;28;20280;-88
2023/01/03 10:57:52;;;;;;;8.38;2.30;;;;;;;8.42;83.07;100953.41;4925340;28;20034;-89
2023/01/03 11:00:35;;;;;;;4.60;1.25;;;;;;;8.39;83.46;100954.72;4868849;28;20054;-90
2023/01/03 11:03:13;;;;;;;6.13;1.48;;;;;;;8.39;82.66;100943.00;4925091;28;20756;-88
2023/01/03 11:05:41;;;;;;;5.28;1.30;;;;;;;8.34;83.52;100954.53;4925700;28;20034;-87
2023/01/03 11:08:22;;;;;;;4.95;1.40;;;;;;;8.43;83.40;100946.94;4906866;28;20046;-87
2023/01/03 11:10:53;;;;;;;4.25;1.77;;;;;;;8.41;84.01;100943.59;4926545;28;20877;-87
2023/01/03 11:13:38;;;;;;;9.70;1.83;;;;;;;8.42;83.81;100934.38;4924574;28;20881;-87
2023/01/03 11:16:13;;;;;;;6.15;2.80;;;;;;;8.47;83.81;100947.31;4926619;28;20730;-90
2023/01/03 11:18:41;;;;;;;11.10;2.55;;;;;;;8.50;83.69;100947.69;4927341;28;20132;-89
2023/01/03 11:21:34;;;;;;;4.50;1.80;;;;;;;8.44;83.48;100940.44;4925455;28;20035;-88
2023/01/03 11:24:36;;;;;;;4.75;1.88;;;;;;;8.56;83.45;100946.00;4925160;28;20035;-89
2023/01/03 11:27:19;;;;;;;3.33;1.17;;;;;;;8.82;83.18;100933.25;4924564;28;20046;-88
2023/01/03 11:29:47;;;;;;;3.72;1.50;;;;;;;8.85;82.79;100931.94;4924662;28;20042;-87
2023/01/03 11:32:21;;;;;;;2.75;1.33;;;;;;;8.94;82.67;100933.34;4925406;28;20046;-88
2023/01/03 11:35:04;;;;;;;5.90;1.80;;;;;;;8.94;81.93;100927.06;4925918;28;20765;-88
2023/01/03 11:37:47;;;;;;;4.65;1.60;;;;;;;8.74;81.83;100942.53;4924983;28;20109;-88
2023/01/03 11:40:27;;;;;;;4.18;1.42;;;;;;;8.88;81.80;100931.53;4926059;28;20460;-89
2023/01/03 11:43:14;;;;;;;3.28;1.30;;;;;;;8.93;81.40;100934.38;4926640;28;20045;-89
2023/01/03 11:46:01;;;;;;;5.75;2.40;;;;;;;8.78;81.33;100929.31;4924939;28;20626;-89
2023/01/03 11:48:34;;;;;;;5.53;1.92;;;;;;;8.96;81.57;100928.50;4924803;28;21177;-87
2023/01/03 11:51:27;;;;;;;4.10;1.75;;;;;;;8.99;81.11;100928.03;4926192;28;21037;-88
2023/01/03 11:54:06;;;;;;;3.50;1.30;;;;;;;9.09;80.83;100932.16;4926333;28;20038;-91
2023/01/03 11:56:41;;;;;;;4.88;1.73;;;;;;;8.99;80.88;100921.75;4925127;28;20680;-88
2023/01/03 11:59:43;;;;;;;6.10;2.72;;;;;;;8.93;81.27;100917.25;4924911;28;20046;-87
2023/01/03 12:02:42;;;;;;;4.50;1.42;;;;;;;8.94;80.68;100919.75;4907101;28;20094;-86
2023/01/03 12:05:47;;;;;;;3.33;1.58;;;;;;;9.05;80.39;100909.97;4925936;28;20431;-84
2023/01/03 12:08:31;;;;;;;8.45;3.08;;;;;;;9.08;80.48;100911.44;4913100;28;20098;-89
2023/01/03 12:11:09;;;;;;;3.28;1.30;;;;;;;9.01;80.50;100907.97;4925805;28;20759;-87
2023/01/03 12:13:53;;;;;;;6.40;2.28;;;;;;;8.92;80.25;100893.81;4924127;28;21271;-87
2023/01/03 12:16:28;;;;;;;6.60;1.50;;;;;;;8.96;80.66;100898.59;4926456;28;20030;-87
2023/01/03 12:19:00;;;;;;;5.35;2.28;;;;;;;9.03;80.80;100900.41;4927246;28;20177;-87
2023/01/03 12:21:41;;;;;;;4.22;1.83;;;;;;;9.15;80.34;100897.75;4910877;28;21245;-86
2023/01/03 12:24:16;;;;;;;8.88;1.90;;;;;;;9.17;80.50;100909.25;4928582;28;20773;-87
2023/01/03 12:26:50;;;;;;;4.82;1.80;;;;;;;9.30;80.47;100905.50;4928071;28;20034;-87
2023/01/03 12:29:19;;;;;;;8.02;2.03;;;;;;;9.35;79.85;100908.41;4929176;28;20030;-84
2023/01/03 12:32:02;;;;;;;3.33;1.58;;;;;;;9.40;79.48;100894.94;4927688;28;20473;-86
2023/01/03 12:34:57;;;;;;;5.97;2.20;;;;;;;9.41;79.24;100901.22;4929161;28;20042;-87
2023/01/03 12:37:25;;;;;;;;;;;;;;;9.18;79.63;100903.56;4897034;28;21164;-87
2023/01/03 12:39:58;;;;;;;4.45;1.60;;;;;;;9.22;79.57;100903.94;4928553;28;20530;-86
2023/01/03 12:42:45;;;;;;;4.13;1.58;;;;;;;9.35;78.91;100900.25;4928930;28;20042;-87
2023/01/03 12:45:43;;;;;;;5.30;1.92;;;;;;;9.17;79.13;100891.00;4928248;28;20220;-88
2023/01/03 12:48:34;;;;;;;9.70;2.50;;;;;;;9.29;79.06;100882.09;4912773;28;20606;-88
2023/01/03 12:50:59;;;;;;;3.53;1.70;;;;;;;9.20;79.34;100879.69;4927428;28;20683;-86
2023/01/03 12:53:46;;;;;;;3.92;1.80;;;;;;;9.19;79.32;100882.63;4927807;28;20643;-89
2023/01/03 12:56:23;;;;;;;5.75;1.80;;;;;;;9.23;78.99;100884.66;4927627;28;21090;-87